Armagh, Pennsylvania
Current Conditions -  °F | °C
As of 1:15 PM on Thursday 30 Oct 2014 (Local Time) from KIDI Reporting Station
Overcast Overcast  
Wind Chill: 48°   Ceiling: 4400
Heat Index: 48°   Visibility: 10mi
Dew Point: 39°   Wind: 0mph
Humidity: 71%   Direction: NA
Pressure: 30.1"   Gusts: NA
Location:  40.45°N, 79.03°W
Report Text: KIDI 301715Z AUTO 00000KT 10SM FEW024 SCT032 OVC044 09/04 A3010 RMK A01
Loading
Personal Weather Stations






























Interactive Weather Map
Tropical Storm Tracking
New forecast layout! Learn more

10-Day Weather Forecast

Advertisements
Track Severe Weather on mobile